Latest Weather Observations for Warburto Point

IDS60801

Issued at 8:32 am CDT Friday 19 December 2014 (issued every 30 minutes, with the page automatically refreshed every 10 minutes)

About weather observations | Map of weather stations | Latest weather observations for SA | Other Formats
Station Details ID: 022053 Name: WARBURTO POINT Lat: -34.00 Lon: 137.53 Height: 1.0 m
Data from the previous 72 hours. | See also: Recent months for locations in South Australia
Date/Time
CDT
Temp
°C
App
Temp
°C
Dew
Point
Rel
Hum
%
Delta-T
°C
Wind Press
QNH
hPa
Press
MSL
hPa
Rain
since 9 am
mm
Dir
 
Spd
km/h
Gust
km/h
Spd
kts
Gust
kts
19/08:30am - - - - - SSE 17 24 9 13 - - -
19/08:00am - - - - - SSE 19 26 10 14 - - -
19/07:30am - - - - - SE 17 22 9 12 - - -
19/07:00am - - - - - SE 17 22 9 12 - - -
19/06:30am - - - - - SE 17 20 9 11 - - -
19/06:00am - - - - - SSE 22 26 12 14 - - -
19/05:30am - - - - - SE 20 26 11 14 - - -
19/05:00am - - - - - SE 19 24 10 13 - - -
19/04:30am - - - - - SE 19 24 10 13 - - -
19/04:00am - - - - - SSE 24 32 13 17 - - -
19/03:30am - - - - - SSE 26 33 14 18 - - -
19/03:00am - - - - - SSE 28 33 15 18 - - -
19/02:30am - - - - - SSE 30 33 16 18 - - -
19/02:00am - - - - - SSE 32 37 17 20 - - -
19/01:30am - - - - - S 24 30 13 16 - - -
19/01:00am - - - - - S 26 32 14 17 - - -
19/12:30am - - - - - S 32 37 17 20 - - -
19/12:00am - - - - - S 33 41 18 22 - - -
 
Date/Time
CDT
Temp
°C
App
Temp
°C
Dew
Point
Rel
Hum
%
Delta-T
°C
Wind Press
QNH
hPa
Press
MSL
hPa
Rain
since 9 am
mm
Dir
 
Spd
km/h
Gust
km/h
Spd
kts
Gust
kts
18/11:30pm - - - - - SSW 33 43 18 23 - - -
18/11:00pm - - - - - SSW 33 43 18 23 - - -
18/10:30pm - - - - - SSW 32 41 17 22 - - -
18/10:00pm - - - - - SSW 32 41 17 22 - - -
18/09:30pm - - - - - SSW 35 46 19 25 - - -
18/09:00pm - - - - - SSW 33 41 18 22 - - -
18/08:30pm - - - - - SSW 39 46 21 25 - - -
18/08:00pm - - - - - SSW 39 50 21 27 - - -
18/07:30pm - - - - - S 41 52 22 28 - - -
18/07:00pm - - - - - S 41 52 22 28 - - -
18/06:30pm - - - - - SSW 39 52 21 28 - - -
18/06:00pm - - - - - SSW 37 46 20 25 - - -
18/05:30pm - - - - - SSW 35 50 19 27 - - -
18/05:00pm - - - - - SSW 35 41 19 22 - - -
18/04:30pm - - - - - SSW 33 44 18 24 - - -
18/04:00pm - - - - - SSW 35 46 19 25 - - -
18/03:30pm - - - - - SSW 33 39 18 21 - - -
18/03:00pm - - - - - SSW 33 43 18 23 - - -
18/02:30pm - - - - - SSW 30 37 16 20 - - -
18/02:00pm - - - - - SW 28 35 15 19 - - -
18/01:30pm - - - - - SW 30 35 16 19 - - -
18/01:00pm - - - - - SW 28 37 15 20 - - -
18/12:30pm - - - - - SW 28 35 15 19 - - -
18/12:00pm - - - - - SW 26 35 14 19 - - -
18/11:30am - - - - - SW 26 35 14 19 - - -
18/11:00am - - - - - WSW 28 39 15 21 - - -
18/10:30am - - - - - WSW 28 35 15 19 - - -
18/10:00am - - - - - WSW 28 37 15 20 - - -
18/09:30am - - - - - WSW 30 37 16 20 - - -
18/09:00am - - - - - WSW 24 30 13 16 - - -
18/08:30am - - - - - WSW 19 24 10 13 - - -
18/08:00am - - - - - WSW 17 22 9 12 - - -
18/07:30am - - - - - WSW 17 24 9 13 - - -
18/07:00am - - - - - WSW 19 26 10 14 - - -
18/06:30am - - - - - WSW 19 26 10 14 - - -
18/06:00am - - - - - E 6 19 3 10 - - -
18/05:30am - - - - - ENE 9 11 5 6 - - -
18/05:00am - - - - - E 13 15 7 8 - - -
18/04:30am - - - - - ESE 11 13 6 7 - - -
18/04:00am - - - - - E 11 13 6 7 - - -
18/03:30am - - - - - E 11 15 6 8 - - -
18/03:00am - - - - - ESE 13 13 7 7 - - -
18/02:30am - - - - - ESE 11 15 6 8 - - -
18/02:00am - - - - - SE 11 15 6 8 - - -
18/01:30am - - - - - SE 15 19 8 10 - - -
18/01:00am - - - - - SE 17 22 9 12 - - -
18/12:30am - - - - - SE 17 20 9 11 - - -
18/12:00am - - - - - ESE 13 17 7 9 - - -
 
Date/Time
CDT
Temp
°C
App
Temp
°C
Dew
Point
Rel
Hum
%
Delta-T
°C
Wind Press
QNH
hPa
Press
MSL
hPa
Rain
since 9 am
mm
Dir
 
Spd
km/h
Gust
km/h
Spd
kts
Gust
kts
17/11:30pm - - - - - SE 20 26 11 14 - - -
17/11:00pm - - - - - SSE 30 37 16 20 - - -
17/10:30pm - - - - - SSW 28 33 15 18 - - -
17/10:00pm - - - - - SSW 28 35 15 19 - - -
17/09:30pm - - - - - SSW 30 37 16 20 - - -
17/09:00pm - - - - - SSW 32 41 17 22 - - -
17/08:30pm - - - - - SW 33 43 18 23 - - -
17/08:00pm - - - - - SW 32 39 17 21 - - -
17/07:30pm - - - - - SSW 26 33 14 18 - - -
17/07:00pm - - - - - SW 24 30 13 16 - - -
17/06:30pm - - - - - SSW 17 22 9 12 - - -
17/06:00pm - - - - - SSW 17 20 9 11 - - -
17/05:30pm - - - - - SSW 17 20 9 11 - - -
17/05:00pm - - - - - SW 13 19 7 10 - - -
17/04:30pm - - - - - SSW 13 15 7 8 - - -
17/04:00pm - - - - - SSW 15 19 8 10 - - -
17/03:30pm - - - - - SSW 17 20 9 11 - - -
17/03:00pm - - - - - SSW 17 24 9 13 - - -
17/02:30pm - - - - - SSW 20 26 11 14 - - -
17/02:00pm - - - - - SW 20 28 11 15 - - -
17/01:30pm - - - - - SW 20 26 11 14 - - -
17/01:00pm - - - - - WSW 20 28 11 15 - - -
17/12:30pm - - - - - W 17 26 9 14 - - -
17/12:00pm - - - - - SW 17 20 9 11 - - -
17/11:30am - - - - - SW 13 17 7 9 - - -
17/11:00am - - - - - SW 11 15 6 8 - - -
17/10:30am - - - - - SSW 11 17 6 9 - - -
17/10:00am - - - - - SSE 11 17 6 9 - - -
17/09:30am - - - - - SSE 11 17 6 9 - - -
17/09:00am - - - - - SSE 11 15 6 8 - - -
17/08:30am - - - - - SE 13 15 7 8 - - -
17/08:00am - - - - - SE 13 17 7 9 - - -
17/07:30am - - - - - SE 15 19 8 10 - - -
17/07:00am - - - - - ESE 13 15 7 8 - - -
17/06:30am - - - - - ESE 17 19 9 10 - - -
17/06:00am - - - - - ESE 15 15 8 8 - - -
17/05:30am - - - - - ESE 13 13 7 7 - - -
17/05:00am - - - - - ESE 13 13 7 7 - - -
17/04:30am - - - - - ESE 15 17 8 9 - - -
17/04:00am - - - - - ESE 13 17 7 9 - - -
17/03:30am - - - - - SSE 20 28 11 15 - - -
17/03:00am - - - - - SSE 19 24 10 13 - - -
17/02:30am - - - - - SSE 22 28 12 15 - - -
17/02:00am - - - - - SSE 20 28 11 15 - - -
17/01:30am - - - - - S 19 24 10 13 - - -
17/01:00am - - - - - SSE 24 28 13 15 - - -
17/12:30am - - - - - SSE 26 33 14 18 - - -
17/12:00am - - - - - SSW 30 37 16 20 - - -
 
Date/Time
CDT
Temp
°C
App
Temp
°C
Dew
Point
Rel
Hum
%
Delta-T
°C
Wind Press
QNH
hPa
Press
MSL
hPa
Rain
since 9 am
mm
Dir
 
Spd
km/h
Gust
km/h
Spd
kts
Gust
kts
16/11:30pm - - - - - S 32 37 17 20 - - -
16/11:00pm - - - - - SSW 32 41 17 22 - - -
16/10:46pm - - - - - SSW 32 50 17 27 - - -
16/10:30pm - - - - - SSW 32 41 17 22 - - -
16/10:00pm - - - - - SSW 35 46 19 25 - - -
16/09:30pm - - - - - SSW 37 48 20 26 - - -
16/09:00pm - - - - - SSW 37 48 20 26 - - -
16/08:30pm - - - - - SSW 39 56 21 30 - - -
16/08:00pm - - - - - SSW 41 54 22 29 - - -
16/07:30pm - - - - - SSW 43 56 23 30 - - -
16/07:00pm - - - - - SSW 44 57 24 31 - - -
16/06:30pm - - - - - SSW 43 52 23 28 - - -
16/06:02pm - - - - - SSW 44 65 24 35 - - -
16/06:00pm - - - - - SSW 43 54 23 29 - - -
16/05:30pm - - - - - SSW 44 57 24 31 - - -
16/05:00pm - - - - - SSW 43 54 23 29 - - -
16/04:30pm - - - - - SSW 41 52 22 28 - - -
16/04:00pm - - - - - SSW 43 54 23 29 - - -
16/03:30pm - - - - - SSW 43 54 23 29 - - -
16/03:00pm - - - - - SSW 44 57 24 31 - - -
16/02:30pm - - - - - SSW 41 52 22 28 - - -
16/02:00pm - - - - - SW 37 48 20 26 - - -
16/01:30pm - - - - - SW 33 44 18 24 - - -
16/01:00pm - - - - - WSW 32 43 17 23 - - -
16/12:30pm - - - - - WSW 24 32 13 17 - - -
16/12:00pm - - - - - SW 22 30 12 16 - - -
16/11:30am - - - - - WSW 26 35 14 19 - - -
16/11:00am - - - - - WSW 26 33 14 18 - - -
16/10:30am - - - - - W 30 35 16 19 - - -
16/10:00am - - - - - W 24 32 13 17 - - -
16/09:30am - - - - - W 28 35 15 19 - - -
16/09:00am - - - - - WSW 30 35 16 19 - - -

Other Formats:

Comma delimited format used in spreadsheet applications
http://www.bom.gov.au/fwo/IDS60801/IDS60801.94666.axf

JavaScript Object Notation format (JSON) in row-major order
http://www.bom.gov.au/fwo/IDS60801/IDS60801.94666.json